createdAt,value
2022-11-04T00:03:01.071Z,24.45
2022-11-04T00:08:25.019Z,34.10
2022-11-04T00:13:30.155Z,37.75
2022-11-04T00:18:33.805Z,38.38
2022-11-04T00:23:56.530Z,40.15
2022-11-04T00:29:00.320Z,44.03
2022-11-04T00:34:03.983Z,45.55
2022-11-04T00:39:08.979Z,51.08
2022-11-04T00:44:12.736Z,40.90
2022-11-04T00:49:16.418Z,44.63
2022-11-04T00:54:21.458Z,41.92
2022-11-04T00:59:25.088Z,34.78
2022-11-04T01:04:28.811Z,37.28
2022-11-04T01:09:34.118Z,28.80
2022-11-04T01:14:38.043Z,35.78
2022-11-04T01:19:41.696Z,21.83
2022-11-04T01:24:46.714Z,25.37
2022-11-04T01:29:50.406Z,22.42
2022-11-04T01:34:54.075Z,20.85
2022-11-04T01:39:59.082Z,21.10
2022-11-04T01:45:02.811Z,23.75
2022-11-04T01:50:12.227Z,21.67
2022-11-04T01:55:21.369Z,20.65
2022-11-04T02:00:25.106Z,22.08
2022-11-04T02:05:30.526Z,16.60
2022-11-04T02:10:35.805Z,17.85
2022-11-04T02:15:47.158Z,16.80
2022-11-04T02:21:21.189Z,15.68
2022-11-04T02:27:10.072Z,18.35
2022-11-04T02:32:25.049Z,17.48
2022-11-04T02:37:36.179Z,18.20
2022-11-04T02:42:46.578Z,14.87
2022-11-04T02:47:56.609Z,15.05
2022-11-04T02:53:06.457Z,9.52
2022-11-04T02:58:14.896Z,15.23
2022-11-04T03:03:24.038Z,16.10
2022-11-04T03:08:32.034Z,10.88
2022-11-04T03:13:42.274Z,9.85
2022-11-04T03:18:56.301Z,13.35
2022-11-04T03:24:01.094Z,15.35
2022-11-04T03:29:17.642Z,16.62
2022-11-04T03:34:22.866Z,11.93
2022-11-04T03:39:26.731Z,13.05
2022-11-04T03:44:30.960Z,11.43
2022-11-04T03:49:36.094Z,14.95
2022-11-04T03:54:40.358Z,13.55
2022-11-04T04:00:06.924Z,19.37
2022-11-04T04:05:18.993Z,14.35
2022-11-04T04:10:41.976Z,13.43
2022-11-04T04:15:53.726Z,10.85
2022-11-04T04:21:02.963Z,14.27
2022-11-04T04:26:26.790Z,15.57
2022-11-04T04:31:50.278Z,13.18
2022-11-04T04:37:02.307Z,16.20
2022-11-04T04:42:24.869Z,14.60
2022-11-04T04:47:33.367Z,12.45
2022-11-04T04:52:42.279Z,20.12
2022-11-04T04:57:46.053Z,10.07
2022-11-04T05:02:50.117Z,11.40
2022-11-04T05:07:55.168Z,9.30
2022-11-04T05:13:18.077Z,11.20
2022-11-04T05:18:21.784Z,10.07
2022-11-04T05:23:26.834Z,10.32
2022-11-04T05:28:30.814Z,11.32
2022-11-04T05:33:34.502Z,13.98
2022-11-04T05:38:39.985Z,11.02
2022-11-04T05:43:43.662Z,13.32
2022-11-04T05:48:47.362Z,16.35
2022-11-04T05:53:52.447Z,11.75
2022-11-04T05:58:56.285Z,13.07
2022-11-04T06:04:01.001Z,13.27
2022-11-04T06:09:06.289Z,8.88
2022-11-04T06:14:13.563Z,16.15
2022-11-04T06:19:19.847Z,12.07
2022-11-04T06:24:24.967Z,18.45
2022-11-04T06:29:28.662Z,11.27
2022-11-04T06:34:32.363Z,11.65
2022-11-04T06:39:37.442Z,23.23
2022-11-04T06:44:41.109Z,9.77
2022-11-04T06:49:44.785Z,11.43
2022-11-04T06:54:49.821Z,9.13
2022-11-04T06:59:53.690Z,16.98
2022-11-04T07:10:03.301Z,16.58
2022-11-04T07:15:07.999Z,13.88
2022-11-04T07:20:13.559Z,15.52
2022-11-04T07:25:18.614Z,11.77
2022-11-04T07:30:22.320Z,15.50
2022-11-04T07:35:26.116Z,19.00
2022-11-04T07:40:31.300Z,14.35
2022-11-04T07:45:35.590Z,16.70
2022-11-04T07:50:40.863Z,20.35
2022-11-04T07:55:49.413Z,18.00
2022-11-04T08:00:59.534Z,29.08
2022-11-04T08:06:05.724Z,12.40
2022-11-04T08:11:17.309Z,10.82
2022-11-04T08:16:22.923Z,17.37
2022-11-04T08:21:26.807Z,12.90
2022-11-04T08:26:31.916Z,18.80
2022-11-04T08:31:36.217Z,21.25
2022-11-04T08:36:42.680Z,13.40
2022-11-04T08:41:48.152Z,14.65
2022-11-04T08:46:52.163Z,15.48
2022-11-04T08:51:57.201Z,17.83
2022-11-04T08:57:02.650Z,10.07
2022-11-04T09:02:06.420Z,19.33
2022-11-04T09:07:10.155Z,13.60
2022-11-04T09:12:15.127Z,12.43
2022-11-04T09:17:18.794Z,10.50
2022-11-04T09:22:22.537Z,11.15
2022-11-04T09:27:27.739Z,15.15
2022-11-04T09:32:31.421Z,18.30
2022-11-04T09:37:35.111Z,13.62
2022-11-04T09:42:53.685Z,10.73
2022-11-04T09:48:01.521Z,13.93
2022-11-04T09:53:13.985Z,18.30
2022-11-04T09:58:19.221Z,19.60
2022-11-04T10:03:38.574Z,19.80
2022-11-04T10:08:54.953Z,18.00
2022-11-04T10:14:16.059Z,18.42
2022-11-04T10:19:35.890Z,14.20
2022-11-04T10:24:43.911Z,18.58
2022-11-04T10:29:54.010Z,20.48
2022-11-04T10:35:01.893Z,16.95
2022-11-04T10:40:21.224Z,16.75
2022-11-04T10:45:35.305Z,15.05
2022-11-04T10:50:42.418Z,24.17
2022-11-04T10:55:55.957Z,16.95
2022-11-04T11:01:01.388Z,21.00
2022-11-04T11:06:16.968Z,20.65
2022-11-04T11:11:37.728Z,17.40
2022-11-04T11:16:42.818Z,15.30
2022-11-04T11:21:49.171Z,23.95
2022-11-04T11:26:55.793Z,18.42
2022-11-04T11:32:01.770Z,16.55
2022-11-04T11:37:07.607Z,17.62
2022-11-04T11:42:16.082Z,18.75
2022-11-04T11:47:23.852Z,18.40
2022-11-04T11:52:34.661Z,19.83
2022-11-04T12:03:21.533Z,12.60
2022-11-04T12:14:08.857Z,12.80
2022-11-04T12:19:31.136Z,11.48
2022-11-04T12:24:45.648Z,13.20
2022-11-04T12:30:03.248Z,12.43
2022-11-04T12:35:24.984Z,9.23
2022-11-04T12:40:30.201Z,11.27
2022-11-04T12:45:46.701Z,10.30
2022-11-04T12:51:04.808Z,13.65
2022-11-04T13:01:19.526Z,8.95
2022-11-04T13:06:28.236Z,11.38
2022-11-04T13:11:37.138Z,9.48
2022-11-04T13:16:42.661Z,7.32
2022-11-04T13:21:48.457Z,8.90
2022-11-04T13:26:53.164Z,6.45
2022-11-04T13:32:03.858Z,14.80
2022-11-04T13:37:21.798Z,11.55
2022-11-04T13:43:41.947Z,7.05
2022-11-04T13:48:55.618Z,8.27
2022-11-04T13:54:00.672Z,10.50
2022-11-04T13:59:08.800Z,9.35
2022-11-04T14:04:30.401Z,13.32
2022-11-04T14:09:53.525Z,7.80
2022-11-04T14:15:06.087Z,10.93
2022-11-04T14:20:12.582Z,2.97
2022-11-04T14:25:25.783Z,3.05
2022-11-04T14:30:36.916Z,2.05
2022-11-04T14:35:40.678Z,3.85
2022-11-04T14:40:52.256Z,2.85
2022-11-04T14:45:57.100Z,3.75
2022-11-04T14:51:00.871Z,3.22
2022-11-04T14:56:13.329Z,5.20
2022-11-04T15:01:17.828Z,5.95
2022-11-04T15:06:35.208Z,7.37
2022-11-04T15:12:03.509Z,5.20
2022-11-04T15:17:07.282Z,12.70
2022-11-04T15:22:15.049Z,12.70
2022-11-04T15:27:25.467Z,8.27
2022-11-04T15:32:30.122Z,7.15
2022-11-04T15:37:43.653Z,4.50
2022-11-04T15:42:49.858Z,7.87
2022-11-04T15:48:25.755Z,4.55
2022-11-04T15:53:29.683Z,11.23
2022-11-04T15:58:35.501Z,6.55
2022-11-04T16:03:39.215Z,9.25
2022-11-04T16:08:43.060Z,14.38
2022-11-04T16:13:48.320Z,14.93
2022-11-04T16:18:54.698Z,9.60
2022-11-04T16:24:02.346Z,14.55
2022-11-04T16:29:10.704Z,11.20
2022-11-04T16:39:17.886Z,6.15
2022-11-04T16:44:24.399Z,10.73
2022-11-04T16:49:28.209Z,8.25
2022-11-04T16:54:31.962Z,7.20
2022-11-04T16:59:37.031Z,8.05
2022-11-04T17:04:40.726Z,10.27
2022-11-04T17:09:44.476Z,9.93
2022-11-04T17:14:49.552Z,8.20
2022-11-04T17:19:53.258Z,6.40
2022-11-04T17:24:57.027Z,10.82
2022-11-04T17:30:02.307Z,9.27
2022-11-04T17:35:06.797Z,9.13
2022-11-04T17:40:14.721Z,18.37
2022-11-04T17:45:19.857Z,20.17
2022-11-04T17:50:23.917Z,23.23
2022-11-04T17:55:28.003Z,24.87
2022-11-04T18:00:33.133Z,21.55
2022-11-04T18:05:36.884Z,18.17
2022-11-04T18:10:40.550Z,14.18
2022-11-04T18:15:45.711Z,17.87
2022-11-04T18:20:49.738Z,21.12
2022-11-04T18:25:53.407Z,12.52
2022-11-04T18:30:58.469Z,56.53
2022-11-04T18:36:04.810Z,31.85
2022-11-04T18:41:08.497Z,24.63
2022-11-04T18:46:16.016Z,19.33
2022-11-04T18:51:22.594Z,30.87
2022-11-04T18:56:26.263Z,26.20
2022-11-04T19:01:33.839Z,19.05
2022-11-04T19:06:41.799Z,21.77
2022-11-04T19:11:45.771Z,21.12
2022-11-04T19:16:50.808Z,12.63
2022-11-04T19:21:54.489Z,14.98
2022-11-04T19:26:58.215Z,23.12
2022-11-04T19:32:03.336Z,19.95
2022-11-04T19:37:07.050Z,11.10
2022-11-04T19:42:31.601Z,11.60
2022-11-04T19:47:36.617Z,14.45
2022-11-04T19:52:40.428Z,17.27
2022-11-04T19:57:44.140Z,14.70
2022-11-04T20:02:49.317Z,12.50
2022-11-04T20:07:54.919Z,16.17
2022-11-04T20:13:16.321Z,15.93
2022-11-04T20:18:21.435Z,17.90
2022-11-04T20:23:25.154Z,21.25
2022-11-04T20:28:28.856Z,24.60
2022-11-04T20:33:33.850Z,16.27
2022-11-04T20:38:37.929Z,16.58
2022-11-04T20:43:41.985Z,13.00
2022-11-04T20:48:47.661Z,17.65
2022-11-04T20:53:55.866Z,19.50
2022-11-04T20:59:00.727Z,16.48
2022-11-04T21:04:07.719Z,12.75
2022-11-04T21:09:15.672Z,15.35
2022-11-04T21:14:20.238Z,11.35
2022-11-04T21:19:25.337Z,11.18
2022-11-04T21:24:29.064Z,9.25
2022-11-04T21:29:32.831Z,12.55
2022-11-04T21:34:38.177Z,5.82
2022-11-04T21:39:42.626Z,5.70
2022-11-04T21:44:46.370Z,9.80
2022-11-04T21:49:51.462Z,9.05
2022-11-04T21:54:55.180Z,11.95
2022-11-04T21:59:58.893Z,13.77
2022-11-04T22:05:03.981Z,13.95
2022-11-04T22:10:08.684Z,9.40
2022-11-04T22:15:12.374Z,11.20
2022-11-04T22:20:17.684Z,13.30
2022-11-04T22:25:21.405Z,8.60
2022-11-04T22:30:25.184Z,10.40
2022-11-04T22:35:30.434Z,12.18
2022-11-04T22:40:34.167Z,8.85
2022-11-04T22:45:39.636Z,11.73
2022-11-04T22:50:44.918Z,9.55
2022-11-04T22:55:48.626Z,8.60
2022-11-04T23:00:56.138Z,8.18
2022-11-04T23:06:02.608Z,7.33
2022-11-04T23:11:27.056Z,5.87
2022-11-04T23:16:48.506Z,10.43
2022-11-04T23:22:11.553Z,14.02
2022-11-04T23:27:35.492Z,6.62
2022-11-04T23:32:39.179Z,8.82
2022-11-04T23:37:44.245Z,6.68
2022-11-04T23:42:47.940Z,13.30
2022-11-04T23:48:14.346Z,8.15
2022-11-04T23:53:38.954Z,8.00
2022-11-04T23:59:00.291Z,7.32
